Time;durP1;ratioP1;P1;durP2;ratioP2;P2;SDS_P1;SDS_P2;PMS_P1;PMS_P2;Temp;Humidity;BMP_temperature;BMP_pressure;BME280_temperature;BME280_humidity;BME280_pressure;Samples;Min_cycle;Max_cycle;Signal;HPM_P1;HPM_P2
2023/01/09 00:02:20;;;;;;;0.40;0.40;;;4.50;99.90;;;;;;5049120;28;20187;-90
2023/01/09 00:04:45;;;;;;;0.30;0.30;;;4.40;99.90;;;;;;5049340;28;20483;-89
2023/01/09 00:07:11;;;;;;;0.30;0.30;;;4.50;99.90;;;;;;5049798;28;20186;-91
2023/01/09 00:09:36;;;;;;;0.30;0.30;;;4.50;99.90;;;;;;5047913;28;20638;-88
2023/01/09 00:12:02;;;;;;;0.30;0.30;;;4.50;99.90;;;;;;5050391;28;20310;-90
2023/01/09 00:14:27;;;;;;;0.30;0.30;;;4.60;99.90;;;;;;5046045;28;20186;-90
2023/01/09 00:16:54;;;;;;;0.30;0.30;;;4.40;99.90;;;;;;5046287;28;20195;-89
2023/01/09 00:19:19;;;;;;;0.30;0.30;;;4.40;99.90;;;;;;5051741;28;20179;-90
2023/01/09 00:21:45;;;;;;;0.40;0.40;;;4.50;99.90;;;;;;5051988;28;20457;-90
2023/01/09 00:24:10;;;;;;;0.30;0.30;;;4.40;99.90;;;;;;5044379;28;20215;-90
2023/01/09 00:26:36;;;;;;;0.30;0.30;;;4.50;99.90;;;;;;5053749;28;20190;-90
2023/01/09 00:29:02;;;;;;;0.30;0.30;;;4.50;99.90;;;;;;5053190;28;20225;-90
2023/01/09 00:31:27;;;;;;;0.30;0.30;;;4.50;99.90;;;;;;5049689;28;20214;-89
2023/01/09 00:34:06;;;;;;;0.30;0.30;;;4.60;99.90;;;;;;5050629;28;20857;-90
2023/01/09 00:36:32;;;;;;;0.30;0.30;;;4.40;99.90;;;;;;5053306;28;20561;-89
2023/01/09 00:38:57;;;;;;;0.30;0.30;;;4.60;99.90;;;;;;5032979;28;20445;-89
2023/01/09 00:41:31;;;;;;;0.40;0.40;;;4.40;99.90;;;;;;5051842;28;20440;-89
2023/01/09 00:44:03;;;;;;;0.30;0.30;;;4.50;99.90;;;;;;5034685;28;20445;-89
2023/01/09 00:46:33;;;;;;;0.30;0.30;;;4.50;99.90;;;;;;5050642;28;20952;-89
2023/01/09 00:48:59;;;;;;;0.30;0.30;;;4.50;99.90;;;;;;5033897;28;20816;-89
2023/01/09 00:51:26;;;;;;;0.30;0.30;;;4.50;99.90;;;;;;5045801;28;20531;-91
2023/01/09 00:53:52;;;;;;;0.40;0.40;;;4.30;99.90;;;;;;5046436;28;20470;-88
2023/01/09 00:56:19;;;;;;;0.30;0.30;;;4.30;99.90;;;;;;5048533;28;20484;-89
2023/01/09 00:58:45;;;;;;;0.30;0.30;;;4.30;99.90;;;;;;5047891;28;20339;-90
2023/01/09 01:01:11;;;;;;;0.40;0.40;;;4.20;99.90;;;;;;5032535;28;20486;-89
2023/01/09 01:03:36;;;;;;;0.30;0.30;;;4.10;99.90;;;;;;5042342;28;20266;-89
2023/01/09 01:08:46;;;;;;;0.30;0.30;;;4.10;99.90;;;;;;5054066;28;20654;-89
2023/01/09 01:11:11;;;;;;;0.30;0.30;;;4.30;99.90;;;;;;5047964;28;20484;-89
2023/01/09 01:13:39;;;;;;;0.30;0.30;;;4.20;99.90;;;;;;5031773;28;20187;-89
2023/01/09 01:16:07;;;;;;;0.30;0.30;;;4.10;99.90;;;;;;5028562;28;20275;-90
2023/01/09 01:18:33;;;;;;;0.30;0.30;;;4.30;99.90;;;;;;5050401;28;20437;-89
2023/01/09 01:20:58;;;;;;;0.40;0.40;;;4.30;99.90;;;;;;5029331;28;20866;-89
2023/01/09 01:23:24;;;;;;;0.30;0.30;;;4.40;99.90;;;;;;5031836;28;20194;-89
2023/01/09 01:25:50;;;;;;;0.30;0.30;;;4.30;99.90;;;;;;5048020;28;20594;-89
2023/01/09 01:28:15;;;;;;;0.30;0.30;;;4.40;99.90;;;;;;5032766;28;20179;-88
2023/01/09 01:30:42;;;;;;;0.30;0.30;;;4.40;99.90;;;;;;5048983;28;20226;-89
2023/01/09 01:33:09;;;;;;;0.33;0.33;;;4.40;99.90;;;;;;5033661;28;20187;-88
2023/01/09 01:35:35;;;;;;;0.30;0.30;;;4.40;99.90;;;;;;5048203;28;20945;-89
2023/01/09 01:38:00;;;;;;;0.30;0.30;;;4.30;99.90;;;;;;5049404;28;20509;-89
2023/01/09 01:40:26;;;;;;;0.30;0.30;;;4.30;99.90;;;;;;5032007;28;20441;-89
2023/01/09 01:42:54;;;;;;;0.20;0.20;;;4.30;99.90;;;;;;5051939;28;20669;-88
2023/01/09 01:45:22;;;;;;;0.30;0.30;;;4.20;99.90;;;;;;5048653;28;20437;-89
2023/01/09 01:47:54;;;;;;;0.40;0.40;;;4.20;99.90;;;;;;5048148;28;20444;-88
2023/01/09 01:50:47;;;;;;;0.30;0.30;;;4.20;99.90;;;;;;5050541;28;20833;-88
2023/01/09 01:53:21;;;;;;;0.30;0.30;;;4.20;99.90;;;;;;5031728;28;20445;-89
2023/01/09 01:56:04;;;;;;;0.30;0.30;;;4.30;99.90;;;;;;5049899;28;20524;-88
2023/01/09 01:58:32;;;;;;;0.30;0.30;;;4.30;99.90;;;;;;5051739;28;20440;-88
2023/01/09 02:00:58;;;;;;;0.20;0.20;;;4.40;99.90;;;;;;5048561;28;20483;-88
2023/01/09 02:03:26;;;;;;;0.30;0.30;;;4.40;99.90;;;;;;5047852;28;20876;-89
2023/01/09 02:05:52;;;;;;;0.40;0.40;;;4.50;99.90;;;;;;5049310;28;20245;-90
2023/01/09 02:08:18;;;;;;;0.30;0.30;;;4.50;99.90;;;;;;5033281;28;20453;-89
2023/01/09 02:10:44;;;;;;;0.30;0.30;;;4.50;99.90;;;;;;5049103;28;20340;-89
2023/01/09 02:13:11;;;;;;;0.40;0.40;;;4.50;99.90;;;;;;5046812;28;20314;-87
2023/01/09 02:16:18;;;;;;;0.30;0.30;;;4.60;99.90;;;;;;5047246;28;20455;-88
2023/01/09 02:19:02;;;;;;;0.30;0.30;;;4.60;99.90;;;;;;5027153;28;20483;-88
2023/01/09 02:21:47;;;;;;;0.30;0.30;;;4.60;99.90;;;;;;5050702;28;21254;-89
2023/01/09 02:24:12;;;;;;;0.30;0.30;;;4.60;99.90;;;;;;5046322;28;20448;-89
2023/01/09 02:26:41;;;;;;;0.40;0.40;;;4.60;99.90;;;;;;5026534;28;20453;-88
2023/01/09 02:29:40;;;;;;;0.20;0.20;;;4.80;99.90;;;;;;5050278;28;20183;-89
2023/01/09 02:32:11;;;;;;;0.30;0.30;;;4.80;99.90;;;;;;5048808;28;20499;-89
2023/01/09 02:35:27;;;;;;;0.40;0.40;;;4.90;99.90;;;;;;5049944;28;20437;-88
2023/01/09 02:38:51;;;;;;;0.30;0.30;;;4.90;99.90;;;;;;5045092;28;20478;-89
2023/01/09 02:41:24;;;;;;;0.30;0.30;;;4.90;99.90;;;;;;4956737;28;20457;-88
2023/01/09 02:44:10;;;;;;;0.30;0.30;;;4.90;99.90;;;;;;4966818;28;20495;-89
2023/01/09 02:46:36;;;;;;;0.20;0.20;;;4.90;99.90;;;;;;5020355;28;20444;-89
2023/01/09 02:49:01;;;;;;;0.20;0.20;;;5.00;99.90;;;;;;5043175;28;20447;-89
2023/01/09 02:51:39;;;;;;;0.30;0.30;;;5.00;99.90;;;;;;5049006;28;20222;-89
2023/01/09 02:54:14;;;;;;;0.30;0.30;;;5.00;99.90;;;;;;5048786;28;20189;-89
2023/01/09 02:57:01;;;;;;;0.30;0.30;;;5.10;99.90;;;;;;5037277;28;20488;-89
2023/01/09 02:59:56;;;;;;;0.30;0.30;;;5.10;99.90;;;;;;5047660;28;20528;-89
2023/01/09 03:02:34;;;;;;;0.23;0.23;;;5.10;99.90;;;;;;5047876;28;20493;-89
2023/01/09 03:05:05;;;;;;;0.20;0.20;;;5.10;99.90;;;;;;5048798;28;20479;-87
2023/01/09 03:07:42;;;;;;;0.30;0.30;;;5.10;99.90;;;;;;5046962;28;20444;-88
2023/01/09 03:10:19;;;;;;;0.30;0.30;;;5.20;99.90;;;;;;5040209;28;20450;-89
2023/01/09 03:12:49;;;;;;;0.30;0.30;;;5.20;99.90;;;;;;5047036;28;20532;-89
2023/01/09 03:15:19;;;;;;;0.30;0.30;;;5.20;99.90;;;;;;5048634;28;20559;-88
2023/01/09 03:17:47;;;;;;;0.30;0.30;;;5.30;99.90;;;;;;5045925;28;20476;-89
2023/01/09 03:20:16;;;;;;;0.30;0.30;;;5.30;99.90;;;;;;5048084;28;20651;-90
2023/01/09 03:23:10;;;;;;;0.30;0.30;;;5.30;99.90;;;;;;5045926;28;20499;-89
2023/01/09 03:25:35;;;;;;;0.30;0.30;;;5.30;99.90;;;;;;5047322;28;20925;-89
2023/01/09 03:28:04;;;;;;;0.30;0.30;;;5.30;99.90;;;;;;5047199;28;20479;-89
2023/01/09 03:30:31;;;;;;;0.30;0.30;;;5.40;99.90;;;;;;5039111;28;20206;-90
2023/01/09 03:32:57;;;;;;;0.30;0.30;;;5.40;99.90;;;;;;5023239;28;20449;-90
2023/01/09 03:35:23;;;;;;;0.30;0.30;;;5.40;99.90;;;;;;5050161;28;21047;-89
2023/01/09 03:37:50;;;;;;;0.30;0.30;;;5.40;99.90;;;;;;5049244;28;20198;-89
2023/01/09 03:40:19;;;;;;;0.30;0.30;;;5.40;99.90;;;;;;5045130;28;20532;-89
2023/01/09 03:42:45;;;;;;;0.30;0.30;;;5.40;99.90;;;;;;5046135;28;21008;-90
2023/01/09 03:45:11;;;;;;;0.30;0.30;;;5.50;99.90;;;;;;5042267;28;20524;-89
2023/01/09 03:47:36;;;;;;;0.20;0.20;;;5.50;99.90;;;;;;5046891;28;21069;-89
2023/01/09 03:50:02;;;;;;;0.30;0.30;;;5.50;99.90;;;;;;5047151;28;20199;-90
2023/01/09 03:52:27;;;;;;;0.30;0.30;;;5.50;99.90;;;;;;5050337;28;20198;-90
2023/01/09 03:54:53;;;;;;;0.30;0.30;;;5.50;99.90;;;;;;5047488;28;20265;-89
2023/01/09 03:57:18;;;;;;;0.30;0.30;;;5.50;99.90;;;;;;5043726;28;20199;-89
2023/01/09 03:59:44;;;;;;;0.30;0.30;;;5.50;99.90;;;;;;5045833;28;20199;-89
2023/01/09 04:02:09;;;;;;;0.30;0.30;;;5.50;99.90;;;;;;5043263;28;20201;-89
2023/01/09 04:04:35;;;;;;;0.30;0.30;;;5.50;99.90;;;;;;5050386;28;20231;-90
2023/01/09 04:07:00;;;;;;;0.30;0.30;;;5.60;99.90;;;;;;5047230;28;20248;-90
2023/01/09 04:09:26;;;;;;;0.30;0.30;;;5.60;99.90;;;;;;5048944;28;20191;-88
2023/01/09 04:11:51;;;;;;;0.30;0.30;;;5.60;99.90;;;;;;5046288;28;20235;-90
2023/01/09 04:14:17;;;;;;;0.30;0.30;;;5.60;99.90;;;;;;5044902;28;21157;-90
2023/01/09 04:16:42;;;;;;;0.30;0.30;;;5.60;99.90;;;;;;5041535;28;20198;-90
2023/01/09 04:19:08;;;;;;;0.30;0.30;;;5.70;99.90;;;;;;5049618;28;20191;-88
2023/01/09 04:21:33;;;;;;;0.30;0.30;;;5.70;99.90;;;;;;5046963;28;20673;-89
2023/01/09 04:23:59;;;;;;;0.30;0.30;;;5.70;99.90;;;;;;5047969;28;20212;-90
2023/01/09 04:26:24;;;;;;;0.30;0.30;;;5.70;99.90;;;;;;5047384;28;20208;-90
2023/01/09 04:28:50;;;;;;;0.30;0.30;;;5.70;99.90;;;;;;5045782;28;20190;-89
2023/01/09 04:31:15;;;;;;;0.30;0.30;;;5.70;99.90;;;;;;5020904;28;20297;-90
2023/01/09 04:33:41;;;;;;;0.30;0.30;;;5.70;99.90;;;;;;5034610;28;20553;-89
2023/01/09 04:36:07;;;;;;;0.30;0.30;;;5.70;99.90;;;;;;5032665;28;20192;-89
2023/01/09 04:38:32;;;;;;;0.30;0.30;;;5.70;99.90;;;;;;5042055;28;20658;-89
2023/01/09 04:40:58;;;;;;;0.30;0.30;;;5.70;99.90;;;;;;5046310;28;20205;-90
2023/01/09 04:43:24;;;;;;;0.30;0.30;;;5.70;99.90;;;;;;5042444;28;20194;-90
2023/01/09 04:45:49;;;;;;;0.30;0.30;;;5.80;99.90;;;;;;5047617;28;20186;-90
2023/01/09 04:48:15;;;;;;;0.30;0.30;;;5.80;99.90;;;;;;5050350;28;20466;-89
2023/01/09 04:50:40;;;;;;;0.30;0.30;;;5.80;99.90;;;;;;5048364;28;20199;-89
2023/01/09 04:53:06;;;;;;;0.30;0.30;;;5.80;99.90;;;;;;5049239;28;20191;-89
2023/01/09 04:55:32;;;;;;;0.30;0.30;;;5.70;99.90;;;;;;5048060;28;20213;-90
2023/01/09 04:57:57;;;;;;;0.20;0.20;;;5.70;99.90;;;;;;5046671;28;20666;-89
2023/01/09 05:00:23;;;;;;;0.30;0.30;;;5.70;99.90;;;;;;5040842;28;20589;-89
2023/01/09 05:02:49;;;;;;;0.30;0.30;;;5.70;99.90;;;;;;5049988;28;22177;-90
2023/01/09 05:05:14;;;;;;;0.30;0.30;;;5.70;99.90;;;;;;5046790;28;20226;-90
2023/01/09 05:07:40;;;;;;;0.23;0.23;;;5.70;99.90;;;;;;5048025;28;20187;-89
2023/01/09 05:10:07;;;;;;;0.30;0.30;;;5.70;99.90;;;;;;5053279;28;20344;-90
2023/01/09 05:12:35;;;;;;;0.30;0.30;;;5.70;99.90;;;;;;5035215;28;20217;-90
2023/01/09 05:15:01;;;;;;;0.30;0.30;;;5.70;99.90;;;;;;5048709;28;20508;-89
2023/01/09 05:17:26;;;;;;;0.30;0.30;;;5.70;99.90;;;;;;5050641;28;20536;-90
2023/01/09 05:19:52;;;;;;;0.30;0.30;;;5.70;99.90;;;;;;5052004;28;21039;-90
2023/01/09 05:22:17;;;;;;;0.30;0.30;;;5.70;99.90;;;;;;5044289;28;20187;-90
2023/01/09 05:24:43;;;;;;;0.30;0.30;;;5.70;99.90;;;;;;5044655;28;20622;-90
2023/01/09 05:27:08;;;;;;;0.30;0.30;;;5.70;99.90;;;;;;5049509;28;20221;-90
2023/01/09 05:29:34;;;;;;;0.30;0.30;;;5.60;99.90;;;;;;5050362;28;20191;-89
2023/01/09 05:31:59;;;;;;;0.30;0.30;;;5.60;99.90;;;;;;5049147;28;20284;-92
2023/01/09 05:34:25;;;;;;;0.30;0.30;;;5.70;99.90;;;;;;5049871;28;20580;-88
2023/01/09 05:36:50;;;;;;;0.30;0.30;;;5.70;99.90;;;;;;5049458;28;20186;-89
2023/01/09 05:39:16;;;;;;;0.20;0.20;;;5.70;99.90;;;;;;5028649;28;20534;-89
2023/01/09 05:41:41;;;;;;;0.20;0.20;;;5.70;99.90;;;;;;5049168;28;20281;-91
2023/01/09 05:44:07;;;;;;;0.30;0.30;;;5.70;99.90;;;;;;5053980;28;20186;-90
2023/01/09 05:46:33;;;;;;;0.30;0.30;;;5.70;99.90;;;;;;5041857;28;20195;-90
2023/01/09 05:48:58;;;;;;;0.30;0.30;;;5.70;99.90;;;;;;5051333;28;20182;-91
2023/01/09 05:51:24;;;;;;;0.30;0.30;;;5.70;99.90;;;;;;5051042;28;20258;-91
2023/01/09 05:53:49;;;;;;;0.20;0.20;;;5.70;99.90;;;;;;5052387;28;20183;-90
2023/01/09 05:56:15;;;;;;;0.30;0.30;;;5.70;99.90;;;;;;5045966;28;20197;-90
2023/01/09 05:58:41;;;;;;;0.30;0.30;;;5.70;99.90;;;;;;5046625;28;20547;-91
2023/01/09 06:01:06;;;;;;;0.27;0.27;;;5.80;99.90;;;;;;5044163;28;20179;-90
2023/01/09 06:03:32;;;;;;;0.30;0.30;;;5.70;99.90;;;;;;5042325;28;20218;-93
2023/01/09 06:05:57;;;;;;;0.30;0.30;;;5.70;99.90;;;;;;5048706;28;20230;-92
2023/01/09 06:08:23;;;;;;;0.30;0.30;;;5.80;99.90;;;;;;5053333;28;20179;-88
2023/01/09 06:10:48;;;;;;;0.30;0.30;;;5.70;99.90;;;;;;5046382;28;20219;-89
2023/01/09 06:13:14;;;;;;;0.30;0.30;;;5.70;99.90;;;;;;5044454;28;20685;-89
2023/01/09 06:15:40;;;;;;;0.30;0.30;;;5.80;99.90;;;;;;5039780;28;20209;-86
2023/01/09 06:18:05;;;;;;;0.30;0.30;;;5.80;99.90;;;;;;5019137;28;20647;-86
2023/01/09 06:20:31;;;;;;;0.20;0.20;;;5.70;99.90;;;;;;5043143;28;20198;-86
2023/01/09 06:22:56;;;;;;;0.30;0.30;;;5.70;99.90;;;;;;5032597;28;20274;-85
2023/01/09 06:25:22;;;;;;;0.23;0.23;;;5.70;99.90;;;;;;5047414;28;20191;-86
2023/01/09 06:27:48;;;;;;;0.30;0.30;;;5.60;99.90;;;;;;5049218;28;20229;-86
2023/01/09 06:30:14;;;;;;;0.30;0.30;;;5.60;99.90;;;;;;5042990;28;20191;-85
2023/01/09 06:32:39;;;;;;;0.30;0.30;;;5.60;99.90;;;;;;5043202;28;20472;-83
2023/01/09 06:35:05;;;;;;;0.30;0.30;;;5.60;99.90;;;;;;5038183;28;20216;-85
2023/01/09 06:37:32;;;;;;;0.30;0.30;;;5.60;99.90;;;;;;5049650;28;20241;-86
2023/01/09 06:39:57;;;;;;;0.30;0.30;;;5.60;99.90;;;;;;5045718;28;20223;-85
2023/01/09 06:42:23;;;;;;;0.30;0.30;;;5.50;99.90;;;;;;5038392;28;20908;-85
2023/01/09 06:44:48;;;;;;;0.30;0.30;;;5.50;99.90;;;;;;5049674;28;20206;-85
2023/01/09 06:47:14;;;;;;;0.30;0.30;;;5.50;99.90;;;;;;5049933;28;20203;-85
2023/01/09 06:49:39;;;;;;;0.30;0.30;;;5.50;99.90;;;;;;5045478;28;20316;-85
2023/01/09 06:52:06;;;;;;;0.23;0.23;;;5.50;99.90;;;;;;5027373;28;20310;-87
2023/01/09 06:54:32;;;;;;;0.30;0.30;;;5.50;99.90;;;;;;5026867;28;20818;-86
2023/01/09 06:56:58;;;;;;;0.20;0.20;;;5.50;99.90;;;;;;5051820;28;20441;-86
2023/01/09 06:59:24;;;;;;;0.20;0.20;;;5.50;99.90;;;;;;5045298;28;20437;-86
2023/01/09 07:01:50;;;;;;;0.30;0.30;;;5.50;99.90;;;;;;5041376;28;20449;-84
2023/01/09 07:04:16;;;;;;;0.30;0.30;;;5.50;99.90;;;;;;5040472;28;20192;-85
2023/01/09 07:06:42;;;;;;;0.30;0.30;;;5.50;99.90;;;;;;5045752;28;20179;-87
2023/01/09 07:09:12;;;;;;;0.30;0.30;;;5.50;99.90;;;;;;5044189;28;20437;-85
2023/01/09 07:11:37;;;;;;;0.30;0.30;;;5.50;99.90;;;;;;5048725;28;20223;-86
2023/01/09 07:14:03;;;;;;;0.30;0.30;;;5.40;99.90;;;;;;5042091;28;20511;-85
2023/01/09 07:16:29;;;;;;;0.30;0.30;;;5.40;99.90;;;;;;5047460;28;20515;-86
2023/01/09 07:18:54;;;;;;;0.20;0.20;;;5.40;99.90;;;;;;5031922;28;20190;-87
2023/01/09 07:21:20;;;;;;;0.23;0.23;;;5.40;99.90;;;;;;5030894;28;20201;-87
2023/01/09 07:23:45;;;;;;;0.20;0.20;;;5.40;99.90;;;;;;5049876;28;20178;-86
2023/01/09 07:26:10;;;;;;;0.30;0.30;;;5.40;99.90;;;;;;5045774;28;20194;-87
2023/01/09 07:28:36;;;;;;;0.30;0.30;;;5.40;99.90;;;;;;5042782;28;20230;-86
2023/01/09 07:31:03;;;;;;;0.30;0.30;;;5.40;99.90;;;;;;5043559;28;20333;-86
2023/01/09 07:33:29;;;;;;;0.30;0.30;;;5.30;99.90;;;;;;5046544;28;20192;-86
2023/01/09 07:35:55;;;;;;;0.30;0.30;;;5.30;99.90;;;;;;5050112;28;20932;-85
2023/01/09 07:38:20;;;;;;;0.30;0.30;;;5.40;99.90;;;;;;5045101;28;20195;-89
2023/01/09 07:40:46;;;;;;;0.30;0.30;;;5.40;99.90;;;;;;5045176;28;20270;-89
2023/01/09 07:43:11;;;;;;;0.30;0.30;;;5.40;99.90;;;;;;5026363;28;20186;-89
2023/01/09 07:45:37;;;;;;;0.30;0.30;;;5.40;99.90;;;;;;5048030;28;20202;-91
2023/01/09 07:48:02;;;;;;;0.30;0.30;;;5.40;99.90;;;;;;5047262;28;20198;-88
2023/01/09 07:50:28;;;;;;;0.30;0.30;;;5.40;99.90;;;;;;5045238;28;20700;-93
2023/01/09 07:52:53;;;;;;;0.30;0.30;;;5.40;99.90;;;;;;5049980;28;20589;-93
2023/01/09 07:55:19;;;;;;;0.30;0.30;;;5.40;99.90;;;;;;5049702;28;20257;-89
2023/01/09 07:57:49;;;;;;;0.23;0.23;;;5.40;99.90;;;;;;5048111;28;20198;-88
2023/01/09 08:00:15;;;;;;;0.30;0.30;;;5.40;99.90;;;;;;5042472;28;20232;-88
2023/01/09 08:02:40;;;;;;;0.30;0.30;;;5.30;99.90;;;;;;5039934;28;20480;-89
2023/01/09 08:05:08;;;;;;;0.30;0.30;;;5.30;99.90;;;;;;5044828;28;20469;-88
2023/01/09 08:07:34;;;;;;;0.30;0.30;;;5.30;99.90;;;;;;5024021;28;20198;-88
2023/01/09 08:09:59;;;;;;;0.30;0.30;;;5.30;99.90;;;;;;5034485;28;21009;-88
2023/01/09 08:12:24;;;;;;;0.30;0.30;;;5.30;99.90;;;;;;5043318;28;20493;-88
2023/01/09 08:14:50;;;;;;;0.30;0.30;;;5.30;99.90;;;;;;5022538;28;20183;-89
2023/01/09 08:17:16;;;;;;;0.23;0.23;;;5.30;99.90;;;;;;5047449;28;20225;-89
2023/01/09 08:19:42;;;;;;;0.30;0.30;;;5.30;99.90;;;;;;5045649;28;20191;-90
2023/01/09 08:22:08;;;;;;;0.30;0.30;;;5.30;99.90;;;;;;5047142;28;20186;-85
2023/01/09 08:24:35;;;;;;;0.20;0.20;;;5.20;99.90;;;;;;5038093;28;20976;-91
2023/01/09 08:27:01;;;;;;;0.30;0.30;;;5.30;99.90;;;;;;5046219;28;20444;-86
2023/01/09 08:29:27;;;;;;;0.30;0.30;;;5.30;99.90;;;;;;5044541;28;20462;-86
2023/01/09 08:31:53;;;;;;;0.30;0.30;;;5.20;99.90;;;;;;5038238;28;20306;-85
2023/01/09 08:34:18;;;;;;;0.30;0.30;;;5.20;99.90;;;;;;5030748;28;20527;-85
2023/01/09 08:36:44;;;;;;;0.30;0.30;;;5.20;99.90;;;;;;5024920;28;20654;-87
2023/01/09 08:39:09;;;;;;;0.30;0.30;;;5.20;99.90;;;;;;5049701;28;20194;-87
2023/01/09 08:47:06;;;;;;;0.30;0.30;;;5.20;99.90;;;;;;5042463;28;20448;-87
2023/01/09 08:49:41;;;;;;;0.30;0.30;;;5.30;99.90;;;;;;5047535;28;20994;-86
2023/01/09 08:52:07;;;;;;;0.20;0.20;;;5.30;99.90;;;;;;5046813;28;20492;-86
2023/01/09 08:54:37;;;;;;;0.30;0.30;;;5.30;99.90;;;;;;5052417;28;20456;-87
2023/01/09 08:57:03;;;;;;;0.30;0.30;;;5.30;99.90;;;;;;5049256;28;20638;-86
2023/01/09 08:59:28;;;;;;;0.30;0.30;;;5.30;99.90;;;;;;5033605;28;20453;-86
2023/01/09 09:01:54;;;;;;;0.30;0.30;;;5.30;99.90;;;;;;5045381;28;20199;-85
2023/01/09 09:04:19;;;;;;;0.30;0.30;;;5.40;99.90;;;;;;5048245;28;20191;-85
2023/01/09 09:06:45;;;;;;;0.30;0.30;;;5.40;99.90;;;;;;5025629;28;20207;-85
2023/01/09 09:09:11;;;;;;;0.30;0.30;;;5.40;99.90;;;;;;5046282;28;20198;-85
2023/01/09 09:11:36;;;;;;;0.30;0.30;;;5.50;99.90;;;;;;5047261;28;20222;-85
2023/01/09 09:15:11;;;;;;;0.30;0.30;;;5.60;99.90;;;;;;5028757;28;20432;-85
2023/01/09 09:16:50;;;;;;;0.30;0.30;;;5.70;99.90;;;;;;5040085;28;20197;-85
2023/01/09 09:19:15;;;;;;;0.30;0.30;;;5.70;99.90;;;;;;5044309;28;20433;-86
2023/01/09 09:21:41;;;;;;;0.30;0.30;;;5.80;99.90;;;;;;5044693;28;20191;-86
2023/01/09 09:24:06;;;;;;;0.30;0.30;;;6.00;99.90;;;;;;5030702;28;20260;-86
2023/01/09 09:26:32;;;;;;;0.30;0.30;;;6.20;99.90;;;;;;5046219;28;20221;-86
2023/01/09 09:28:57;;;;;;;0.30;0.30;;;6.20;99.90;;;;;;5032648;28;20190;-86
2023/01/09 09:31:23;;;;;;;0.23;0.23;;;6.20;99.90;;;;;;5028651;28;20247;-84
2023/01/09 09:33:49;;;;;;;0.30;0.30;;;6.30;99.90;;;;;;5029672;28;20977;-83
2023/01/09 09:36:14;;;;;;;0.20;0.20;;;6.30;99.90;;;;;;5033152;28;20194;-84
2023/01/09 09:38:40;;;;;;;0.30;0.30;;;6.30;99.90;;;;;;5046756;28;20178;-84
2023/01/09 09:44:45;;;;;;;0.30;0.30;;;6.40;99.90;;;;;;5052083;28;20649;-84
2023/01/09 09:47:41;;;;;;;0.30;0.30;;;6.40;99.90;;;;;;5048391;28;20512;-84
2023/01/09 09:50:24;;;;;;;0.30;0.30;;;6.40;99.90;;;;;;5043896;28;20437;-85
2023/01/09 09:53:16;;;;;;;0.30;0.30;;;6.60;99.90;;;;;;5045715;28;20499;-85
2023/01/09 09:55:44;;;;;;;0.20;0.20;;;6.80;99.90;;;;;;5035540;28;20515;-84
2023/01/09 09:58:24;;;;;;;0.30;0.30;;;7.00;99.90;;;;;;5044948;28;20453;-84
2023/01/09 10:00:51;;;;;;;0.30;0.30;;;7.00;99.90;;;;;;5040411;28;20812;-85
2023/01/09 10:03:38;;;;;;;0.30;0.30;;;7.20;99.90;;;;;;5049142;28;20456;-85
2023/01/09 10:06:29;;;;;;;0.20;0.20;;;7.10;99.90;;;;;;5037330;28;20541;-85
2023/01/09 10:09:16;;;;;;;0.30;0.30;;;7.10;99.90;;;;;;5046466;28;20960;-84
2023/01/09 10:11:51;;;;;;;0.30;0.30;;;7.10;99.90;;;;;;5030546;28;20935;-84
2023/01/09 10:14:17;;;;;;;0.30;0.30;;;7.20;99.90;;;;;;5044048;28;20929;-85
2023/01/09 10:16:58;;;;;;;0.20;0.20;;;7.30;99.90;;;;;;5046810;28;20457;-85
2023/01/09 10:19:33;;;;;;;0.20;0.20;;;7.40;99.90;;;;;;5049648;28;20222;-83
2023/01/09 10:22:42;;;;;;;0.23;0.23;;;7.40;99.90;;;;;;5049772;28;21046;-84
2023/01/09 10:25:20;;;;;;;0.20;0.20;;;7.50;99.90;;;;;;5047360;28;20499;-85
2023/01/09 10:28:22;;;;;;;0.30;0.30;;;7.50;99.90;;;;;;5042844;28;20478;-85
2023/01/09 10:31:08;;;;;;;0.20;0.20;;;7.80;99.90;;;;;;5037174;28;20491;-84
2023/01/09 10:34:06;;;;;;;0.20;0.20;;;7.90;99.90;;;;;;5047118;28;20452;-85
2023/01/09 10:36:49;;;;;;;0.20;0.20;;;8.00;99.90;;;;;;5044195;28;20533;-83
2023/01/09 10:39:26;;;;;;;0.20;0.20;;;8.20;99.90;;;;;;5042233;28;20936;-84
2023/01/09 10:42:01;;;;;;;0.20;0.20;;;8.70;99.90;;;;;;5047246;28;20475;-82
2023/01/09 10:44:37;;;;;;;0.20;0.20;;;9.30;99.90;;;;;;5024485;28;20447;-84
2023/01/09 10:47:25;;;;;;;0.30;0.30;;;9.20;99.90;;;;;;5046347;28;20516;-85
2023/01/09 10:49:52;;;;;;;0.20;0.20;;;9.20;99.90;;;;;;5047350;28;20444;-85
2023/01/09 10:52:23;;;;;;;0.20;0.20;;;9.50;99.90;;;;;;5045015;28;20505;-81
2023/01/09 10:55:12;;;;;;;0.20;0.20;;;9.70;99.90;;;;;;5041130;28;20433;-82
2023/01/09 10:57:43;;;;;;;0.20;0.20;;;9.20;99.90;;;;;;5032016;28;20469;-85
2023/01/09 11:00:27;;;;;;;0.20;0.20;;;9.50;99.90;;;;;;5044133;28;20503;-84
2023/01/09 11:02:54;;;;;;;0.20;0.20;;;8.40;99.90;;;;;;5044362;28;20441;-85
2023/01/09 11:05:25;;;;;;;0.23;0.23;;;8.30;99.90;;;;;;5048039;28;20469;-85
2023/01/09 11:08:16;;;;;;;0.20;0.20;;;7.70;99.90;;;;;;5047718;28;20548;-84
2023/01/09 11:10:50;;;;;;;0.20;0.20;;;8.30;99.90;;;;;;5042695;28;20468;-83
2023/01/09 11:13:24;;;;;;;0.20;0.20;;;8.80;99.90;;;;;;5036596;28;20441;-85
2023/01/09 11:15:59;;;;;;;0.20;0.20;;;9.00;99.90;;;;;;5045921;28;20447;-85
2023/01/09 11:18:26;;;;;;;0.20;0.20;;;8.90;99.90;;;;;;5044512;28;20786;-85
2023/01/09 11:20:52;;;;;;;0.20;0.20;;;8.60;99.90;;;;;;5043789;28;20437;-84
2023/01/09 11:23:26;;;;;;;0.20;0.20;;;8.20;99.90;;;;;;5044698;28;20502;-86
2023/01/09 11:25:54;;;;;;;0.30;0.30;;;7.60;99.90;;;;;;5031485;28;20440;-84
2023/01/09 11:28:20;;;;;;;0.30;0.30;;;7.30;99.90;;;;;;5048473;28;20425;-84
2023/01/09 11:30:59;;;;;;;0.30;0.30;;;7.00;99.90;;;;;;5027121;28;20510;-81
2023/01/09 11:33:27;;;;;;;0.20;0.20;;;6.80;99.90;;;;;;5042128;28;20198;-81
2023/01/09 11:36:12;;;;;;;0.30;0.30;;;6.90;99.90;;;;;;5047604;28;20449;-81
2023/01/09 11:38:53;;;;;;;0.30;0.30;;;7.00;99.90;;;;;;5049208;28;20446;-81
2023/01/09 11:41:25;;;;;;;0.20;0.20;;;6.80;99.90;;;;;;5033101;28;20430;-82
2023/01/09 11:43:54;;;;;;;0.30;0.30;;;6.80;99.90;;;;;;5030908;28;20445;-81
2023/01/09 11:46:42;;;;;;;0.30;0.30;;;6.80;99.90;;;;;;5046615;28;20444;-82
2023/01/09 11:49:14;;;;;;;0.30;0.30;;;6.70;99.90;;;;;;5044708;28;20432;-81
2023/01/09 11:51:41;;;;;;;0.30;0.30;;;6.50;99.90;;;;;;5044896;28;20484;-81
2023/01/09 11:54:24;;;;;;;0.30;0.30;;;6.50;99.90;;;;;;5041995;28;20441;-80
2023/01/09 11:56:50;;;;;;;0.23;0.23;;;6.50;99.90;;;;;;5046825;28;20440;-80
2023/01/09 11:59:18;;;;;;;0.30;0.30;;;6.60;99.90;;;;;;5033860;28;20458;-80
2023/01/09 12:02:24;;;;;;;0.30;0.30;;;6.50;99.90;;;;;;5043624;28;20445;-82
2023/01/09 12:04:53;;;;;;;0.30;0.30;;;6.50;99.90;;;;;;5021691;28;20842;-81
2023/01/09 12:07:46;;;;;;;0.30;0.30;;;6.40;99.90;;;;;;5044401;28;20441;-81
2023/01/09 12:10:29;;;;;;;0.30;0.30;;;6.40;99.90;;;;;;5038618;28;20994;-81
2023/01/09 12:13:23;;;;;;;0.30;0.30;;;6.40;99.90;;;;;;5048657;28;20545;-81
2023/01/09 12:15:58;;;;;;;0.30;0.30;;;6.40;99.90;;;;;;5038137;28;20441;-81
2023/01/09 12:18:57;;;;;;;0.30;0.30;;;6.30;99.90;;;;;;5034654;28;21222;-81
2023/01/09 12:21:52;;;;;;;0.30;0.30;;;6.30;99.90;;;;;;5048223;28;20448;-81
2023/01/09 12:24:35;;;;;;;0.30;0.30;;;6.20;99.90;;;;;;5047335;28;20437;-81
2023/01/09 12:27:16;;;;;;;0.30;0.30;;;6.20;99.90;;;;;;5030358;28;20823;-81
2023/01/09 12:29:57;;;;;;;0.30;0.30;;;6.10;99.90;;;;;;5032971;28;20998;-81
2023/01/09 12:32:47;;;;;;;0.30;0.30;;;6.10;99.90;;;;;;5026473;28;20530;-81
2023/01/09 12:35:39;;;;;;;0.30;0.30;;;6.10;99.90;;;;;;5048095;28;20452;-81
2023/01/09 12:38:20;;;;;;;0.30;0.30;;;6.20;99.90;;;;;;5038353;28;20440;-81
2023/01/09 12:41:13;;;;;;;0.30;0.30;;;6.10;99.90;;;;;;5034560;28;20453;-80
2023/01/09 12:43:51;;;;;;;0.30;0.30;;;6.00;99.90;;;;;;5052619;28;20463;-80
2023/01/09 12:46:23;;;;;;;0.30;0.30;;;6.10;99.90;;;;;;5047056;28;20449;-81
2023/01/09 12:49:21;;;;;;;0.30;0.30;;;6.10;99.90;;;;;;5038600;28;20452;-81
2023/01/09 12:51:59;;;;;;;0.30;0.30;;;6.10;99.90;;;;;;5038894;28;20482;-81
2023/01/09 12:54:51;;;;;;;0.30;0.30;;;6.10;99.90;;;;;;5029103;28;20818;-80
2023/01/09 12:57:41;;;;;;;0.30;0.30;;;6.00;99.90;;;;;;5027827;28;20447;-81
2023/01/09 13:00:28;;;;;;;0.30;0.30;;;6.10;99.90;;;;;;5039009;28;20445;-80
2023/01/09 13:03:12;;;;;;;0.30;0.30;;;6.10;99.90;;;;;;5041682;28;20524;-80
2023/01/09 13:05:57;;;;;;;0.30;0.30;;;6.10;99.90;;;;;;5042782;28;20869;-80
2023/01/09 13:08:40;;;;;;;0.30;0.30;;;6.10;99.90;;;;;;5029594;28;20524;-80
2023/01/09 13:11:15;;;;;;;0.30;0.30;;;6.20;99.90;;;;;;5045638;28;20972;-82
2023/01/09 13:14:05;;;;;;;0.30;0.30;;;6.10;99.90;;;;;;5044831;28;20436;-80
2023/01/09 13:16:40;;;;;;;0.30;0.30;;;6.20;99.90;;;;;;5044356;28;20579;-81
2023/01/09 13:19:20;;;;;;;0.30;0.30;;;6.10;99.90;;;;;;5049108;28;20476;-80
2023/01/09 13:21:46;;;;;;;0.30;0.30;;;6.10;99.90;;;;;;5025534;28;20529;-81
2023/01/09 13:24:32;;;;;;;0.30;0.30;;;6.10;99.90;;;;;;5043955;28;21041;-82
2023/01/09 13:27:04;;;;;;;0.30;0.30;;;6.20;99.90;;;;;;5043700;28;20488;-81
2023/01/09 13:29:34;;;;;;;0.30;0.30;;;6.30;99.90;;;;;;5022709;28;20814;-81
2023/01/09 13:32:34;;;;;;;0.30;0.30;;;6.30;99.90;;;;;;5044492;28;20496;-81